METAR Data
IDs: Format: Raw Decoded Include TAF

Data at: 1936 UTC 23 Sep 2018

METAR for:PAOU (Nelson Lagoon Arpt, AK, US)
Text:PAOU 231856Z AUTO 11003KT 10SM OVC050 09/06 A2977 RMK AO2 SLP082 T00940061
Temperature: 9.4°C ( 49°F)
Dewpoint: 6.1°C ( 43°F) [RH = 80%]
Pressure (altimeter):29.77 inches Hg (1008.2 mb) [Sea level pressure: 1008.2 mb]
Winds:from the ESE (110 degrees) at 3 MPH (3 knots; 1.5 m/s)
Visibility:10 or more sm (16+ km)
Ceiling:5000 feet AGL
Clouds: overcast cloud deck at 5000 feet AGL
QC Flag:automated observation with no human augmentation

TAF for:PAOU (Nelson Lagoon Arpt, AK, US)
Text:No data found